Time;durP1;ratioP1;P1;durP2;ratioP2;P2;SDS_P1;SDS_P2;PMS_P1;PMS_P2;Temp;Humidity;BMP_temperature;BMP_pressure;BME280_temperature;BME280_humidity;BME280_pressure;Samples;Min_cycle;Max_cycle;Signal;HPM_P1;HPM_P2
2021/07/24 00:00:58;;;;;;;11.00;6.75;;;15.40;99.90;;;;;;5059102;28;20028;-45
2021/07/24 00:03:24;;;;;;;11.45;6.95;;;15.40;99.90;;;;;;5064037;28;20104;-47
2021/07/24 00:05:50;;;;;;;10.52;7.25;;;15.30;99.90;;;;;;5057339;28;20017;-47
2021/07/24 00:08:16;;;;;;;9.07;6.50;;;15.30;99.90;;;;;;5061287;28;20299;-47
2021/07/24 00:10:41;;;;;;;11.05;6.57;;;15.20;99.90;;;;;;5060318;28;20033;-46
2021/07/24 00:13:07;;;;;;;9.02;6.38;;;15.10;99.90;;;;;;5060113;28;20025;-45
2021/07/24 00:15:32;;;;;;;8.75;6.75;;;15.00;99.90;;;;;;5060497;28;20024;-46
2021/07/24 00:17:58;;;;;;;7.15;6.03;;;15.00;99.90;;;;;;5048271;28;20222;-47
2021/07/24 00:20:25;;;;;;;7.30;6.10;;;14.90;99.90;;;;;;5061417;28;20039;-49
2021/07/24 00:22:50;;;;;;;8.73;5.88;;;14.90;99.90;;;;;;5045457;28;20247;-46
2021/07/24 00:25:16;;;;;;;11.35;7.65;;;14.90;99.90;;;;;;5064589;28;20051;-46
2021/07/24 00:27:41;;;;;;;9.57;7.50;;;14.90;99.90;;;;;;5062858;28;20033;-46
2021/07/24 00:30:07;;;;;;;10.02;6.90;;;14.90;99.90;;;;;;5058858;28;20025;-47
2021/07/24 00:32:33;;;;;;;10.98;6.22;;;14.90;99.90;;;;;;5061184;28;20025;-47
2021/07/24 00:34:59;;;;;;;11.70;7.18;;;14.90;99.90;;;;;;5050520;28;20493;-47
2021/07/24 00:37:25;;;;;;;9.52;6.10;;;14.90;99.90;;;;;;5064473;28;20016;-46
2021/07/24 00:39:50;;;;;;;9.52;6.70;;;14.80;99.90;;;;;;5060275;28;20098;-45
2021/07/24 00:42:23;;;;;;;10.90;6.50;;;14.70;99.90;;;;;;5055659;28;20535;-47
2021/07/24 00:44:51;;;;;;;11.80;7.15;;;14.70;99.90;;;;;;5060225;28;20120;-46
2021/07/24 00:47:19;;;;;;;10.55;6.45;;;14.70;99.90;;;;;;5048874;28;20024;-50
2021/07/24 00:49:45;;;;;;;9.23;6.93;;;14.70;99.90;;;;;;5063416;28;20032;-46
2021/07/24 00:52:11;;;;;;;8.20;6.75;;;14.70;99.90;;;;;;5058579;28;20016;-46
2021/07/24 00:54:39;;;;;;;11.23;7.47;;;14.70;99.90;;;;;;5059864;28;20025;-47
2021/07/24 00:57:05;;;;;;;9.63;6.78;;;14.80;99.90;;;;;;5059200;28;20052;-46
2021/07/24 00:59:30;;;;;;;8.65;6.63;;;14.70;99.90;;;;;;5060904;28;20023;-47
2021/07/24 01:01:56;;;;;;;10.20;7.57;;;14.70;99.90;;;;;;5059632;28;20466;-45
2021/07/24 01:04:22;;;;;;;10.07;7.50;;;14.70;99.90;;;;;;5060004;28;20039;-47
2021/07/24 01:06:49;;;;;;;9.85;7.07;;;14.70;99.90;;;;;;5060560;28;20043;-46
2021/07/24 01:09:15;;;;;;;10.95;7.82;;;14.70;99.90;;;;;;5058230;28;20086;-46
2021/07/24 01:11:41;;;;;;;11.70;7.72;;;14.70;99.90;;;;;;5046925;28;20047;-46
2021/07/24 01:14:07;;;;;;;12.70;7.38;;;14.70;99.90;;;;;;5056543;28;20029;-46
2021/07/24 01:16:32;;;;;;;10.20;7.30;;;14.70;99.90;;;;;;5054048;28;20132;-47
2021/07/24 01:18:58;;;;;;;11.30;7.00;;;14.70;99.90;;;;;;5060079;28;20127;-47
2021/07/24 01:21:26;;;;;;;10.02;7.05;;;14.60;99.90;;;;;;5055637;28;20043;-46
2021/07/24 01:23:51;;;;;;;10.60;7.20;;;14.60;99.90;;;;;;5062754;28;20252;-48
2021/07/24 01:26:28;;;;;;;11.27;7.82;;;14.50;99.90;;;;;;5045213;28;20081;-46
2021/07/24 01:28:54;;;;;;;9.10;7.00;;;14.50;99.90;;;;;;5063911;28;20032;-47
2021/07/24 01:31:20;;;;;;;11.40;7.32;;;14.50;99.90;;;;;;5059779;28;20029;-46
2021/07/24 01:33:46;;;;;;;9.32;7.22;;;14.50;99.90;;;;;;5055899;28;20017;-46
2021/07/24 01:36:12;;;;;;;10.25;7.68;;;14.50;99.90;;;;;;5048942;28;20413;-47
2021/07/24 01:38:39;;;;;;;9.50;6.88;;;14.50;99.90;;;;;;5057963;28;20025;-47
2021/07/24 01:41:12;;;;;;;9.10;7.15;;;14.50;99.90;;;;;;5063267;28;20123;-46
2021/07/24 01:43:39;;;;;;;9.18;6.10;;;14.40;99.90;;;;;;5055742;28;20252;-47
2021/07/24 01:46:05;;;;;;;10.07;6.88;;;14.40;99.90;;;;;;5062633;28;20032;-47
2021/07/24 01:48:35;;;;;;;11.32;7.43;;;14.40;99.90;;;;;;5056668;28;20460;-47
2021/07/24 01:53:53;;;;;;;12.45;7.47;;;14.40;99.90;;;;;;5057658;28;20039;-47
2021/07/24 01:56:22;;;;;;;9.90;6.70;;;14.40;99.90;;;;;;5045140;28;20036;-46
2021/07/24 01:58:48;;;;;;;14.13;8.00;;;14.30;99.90;;;;;;5058751;28;20021;-47
2021/07/24 02:01:15;;;;;;;13.35;7.60;;;14.20;99.90;;;;;;5059297;28;20036;-47
2021/07/24 02:03:45;;;;;;;13.20;7.72;;;14.30;99.90;;;;;;5059834;28;20029;-46
2021/07/24 02:06:12;;;;;;;11.23;6.40;;;14.20;99.90;;;;;;5058897;28;20229;-46
2021/07/24 02:08:43;;;;;;;8.75;6.90;;;14.20;99.90;;;;;;5059124;28;20029;-46
2021/07/24 02:11:08;;;;;;;9.23;6.68;;;14.20;99.90;;;;;;5056019;28;20032;-48
2021/07/24 02:13:34;;;;;;;9.57;6.90;;;14.20;99.90;;;;;;5031465;28;20337;-46
2021/07/24 02:16:00;;;;;;;11.02;7.68;;;14.20;99.90;;;;;;5031837;28;20021;-46
2021/07/24 02:18:25;;;;;;;13.57;7.88;;;14.20;99.90;;;;;;5043436;28;20030;-47
2021/07/24 02:20:52;;;;;;;14.38;7.40;;;14.20;99.90;;;;;;5049565;28;20057;-47
2021/07/24 02:23:18;;;;;;;10.70;7.03;;;14.10;99.90;;;;;;5045269;28;20024;-47
2021/07/24 02:25:44;;;;;;;8.40;7.28;;;14.10;99.90;;;;;;5036292;28;20057;-47
2021/07/24 02:28:10;;;;;;;8.55;6.38;;;14.10;99.90;;;;;;5051370;28;20028;-47
2021/07/24 02:30:36;;;;;;;11.73;7.45;;;14.00;99.90;;;;;;5041023;28;20026;-46
2021/07/24 02:33:02;;;;;;;9.70;7.68;;;14.00;99.90;;;;;;5049450;28;20028;-47
2021/07/24 02:35:27;;;;;;;10.95;7.97;;;13.90;99.90;;;;;;5037376;28;20045;-47
2021/07/24 02:37:53;;;;;;;9.52;6.95;;;14.00;99.90;;;;;;5051032;28;20059;-46
2021/07/24 02:40:21;;;;;;;10.93;7.63;;;14.00;99.90;;;;;;5040211;28;20032;-47
2021/07/24 02:42:47;;;;;;;10.25;7.38;;;14.00;99.90;;;;;;5036494;28;20402;-46
2021/07/24 02:45:12;;;;;;;10.77;8.15;;;13.90;99.90;;;;;;5052268;28;20028;-47
2021/07/24 02:47:38;;;;;;;9.80;7.25;;;14.00;99.90;;;;;;5044680;28;20422;-46
2021/07/24 02:50:04;;;;;;;9.70;7.90;;;13.90;99.90;;;;;;5053466;28;20104;-49
2021/07/24 02:52:29;;;;;;;10.73;7.20;;;13.90;99.90;;;;;;5046283;28;20144;-47
2021/07/24 02:54:55;;;;;;;10.65;7.80;;;13.90;99.90;;;;;;5054797;28;20111;-47
2021/07/24 02:57:20;;;;;;;12.00;7.70;;;13.90;99.90;;;;;;5050297;28;20036;-46
2021/07/24 02:59:46;;;;;;;9.98;7.00;;;13.90;99.90;;;;;;5040081;28;20029;-46
2021/07/24 03:02:14;;;;;;;10.15;7.30;;;13.90;99.90;;;;;;5055486;28;20033;-46
2021/07/24 03:04:39;;;;;;;10.90;7.05;;;13.90;99.90;;;;;;5041601;28;20501;-46
2021/07/24 03:07:05;;;;;;;11.38;8.32;;;13.80;99.90;;;;;;5052687;28;20112;-47
2021/07/24 03:09:30;;;;;;;10.80;7.70;;;13.80;99.90;;;;;;5046338;28;20399;-47
2021/07/24 03:11:56;;;;;;;11.75;7.35;;;13.80;99.90;;;;;;5055395;28;20672;-47
2021/07/24 03:14:21;;;;;;;8.95;7.38;;;13.80;99.90;;;;;;5049330;28;20029;-46
2021/07/24 03:16:47;;;;;;;11.63;8.43;;;13.70;99.90;;;;;;5039567;28;20065;-45
2021/07/24 03:19:12;;;;;;;10.18;7.72;;;13.70;99.90;;;;;;5049637;28;20274;-48
2021/07/24 03:21:38;;;;;;;13.55;6.80;;;13.70;99.90;;;;;;5030518;28;20908;-48
2021/07/24 03:24:03;;;;;;;13.80;7.85;;;13.70;99.90;;;;;;5035264;28;20033;-47
2021/07/24 03:26:29;;;;;;;13.20;7.53;;;13.60;99.90;;;;;;5033304;28;20368;-46
2021/07/24 03:28:54;;;;;;;14.95;7.38;;;13.70;99.90;;;;;;5034831;28;20037;-46
2021/07/24 03:31:20;;;;;;;11.30;7.45;;;13.70;99.90;;;;;;5034880;28;20436;-46
2021/07/24 03:33:45;;;;;;;12.30;7.78;;;13.70;99.90;;;;;;5031804;28;20083;-47
2021/07/24 03:36:11;;;;;;;13.85;8.15;;;13.70;99.90;;;;;;5046652;28;20029;-46
2021/07/24 03:38:36;;;;;;;14.63;8.82;;;13.70;99.90;;;;;;5036632;28;20104;-46
2021/07/24 03:41:04;;;;;;;12.75;8.40;;;13.70;99.90;;;;;;5045193;28;20032;-46
2021/07/24 03:43:30;;;;;;;13.15;8.05;;;13.60;99.90;;;;;;5040330;28;20053;-47
2021/07/24 03:45:56;;;;;;;12.10;7.95;;;13.60;99.90;;;;;;5042334;28;20160;-46
2021/07/24 03:48:21;;;;;;;12.02;7.60;;;13.60;99.90;;;;;;5045006;28;20119;-47
2021/07/24 03:50:46;;;;;;;16.25;8.52;;;13.60;99.90;;;;;;5037313;28;20037;-46
2021/07/24 03:53:12;;;;;;;14.02;9.10;;;13.60;99.90;;;;;;5046138;28;20166;-46
2021/07/24 03:55:37;;;;;;;13.13;9.48;;;13.60;99.90;;;;;;5036385;28;20036;-46
2021/07/24 03:58:03;;;;;;;13.10;9.40;;;13.70;99.90;;;;;;5038401;28;20476;-46
2021/07/24 04:00:40;;;;;;;16.20;8.95;;;13.60;99.90;;;;;;5039582;28;20122;-47
2021/07/24 04:03:06;;;;;;;14.68;9.52;;;13.70;99.90;;;;;;5043182;28;20021;-49
2021/07/24 04:05:38;;;;;;;15.10;10.35;;;13.60;99.90;;;;;;5037275;28;20036;-46
2021/07/24 04:08:05;;;;;;;11.45;9.02;;;13.60;99.90;;;;;;5036987;28;20120;-47
2021/07/24 04:10:30;;;;;;;12.82;9.60;;;13.70;99.90;;;;;;5033609;28;20099;-46
2021/07/24 04:12:56;;;;;;;13.25;8.82;;;13.70;99.90;;;;;;5033072;28;20112;-47
2021/07/24 04:15:22;;;;;;;10.27;8.60;;;13.70;99.90;;;;;;5029782;28;20030;-46
2021/07/24 04:17:47;;;;;;;14.68;8.63;;;13.70;99.90;;;;;;5034199;28;20021;-46
2021/07/24 04:20:15;;;;;;;17.83;10.45;;;13.80;99.90;;;;;;5042807;28;20032;-46
2021/07/24 04:22:41;;;;;;;14.35;9.93;;;13.80;99.90;;;;;;5031885;28;20040;-48
2021/07/24 04:25:07;;;;;;;13.38;9.25;;;13.80;99.90;;;;;;5058074;28;20112;-46
2021/07/24 04:27:32;;;;;;;14.75;10.13;;;13.90;99.90;;;;;;5056654;28;20029;-47
2021/07/24 04:29:58;;;;;;;15.38;10.98;;;13.90;99.90;;;;;;5046170;28;20137;-49
2021/07/24 04:32:24;;;;;;;15.82;9.82;;;13.80;99.90;;;;;;5056007;28;20062;-49
2021/07/24 04:34:50;;;;;;;16.35;10.38;;;13.90;99.90;;;;;;5038782;28;20021;-46
2021/07/24 04:37:15;;;;;;;13.27;9.80;;;13.90;99.90;;;;;;5045026;28;20082;-47
2021/07/24 04:39:40;;;;;;;16.23;10.10;;;14.00;99.90;;;;;;5041224;28;20040;-50
2021/07/24 04:42:06;;;;;;;14.88;10.45;;;14.00;99.90;;;;;;5044055;28;20102;-47
2021/07/24 04:44:32;;;;;;;12.68;10.35;;;14.10;99.90;;;;;;5036395;28;20581;-47
2021/07/24 04:46:57;;;;;;;16.02;10.07;;;14.10;99.90;;;;;;5041536;28;20518;-47
2021/07/24 04:49:23;;;;;;;11.60;8.63;;;14.20;99.90;;;;;;5038968;28;20033;-48
2021/07/24 04:51:48;;;;;;;12.48;9.00;;;14.20;99.90;;;;;;5037840;28;20276;-47
2021/07/24 04:54:14;;;;;;;10.52;8.13;;;14.30;99.90;;;;;;5040736;28;20032;-47
2021/07/24 04:56:40;;;;;;;15.73;9.60;;;14.30;99.90;;;;;;5036657;28;20032;-47
2021/07/24 04:59:07;;;;;;;12.25;9.48;;;14.30;99.90;;;;;;5040321;28;20029;-48
2021/07/24 05:01:34;;;;;;;13.27;8.90;;;14.40;99.90;;;;;;5037607;28;20048;-48
2021/07/24 05:04:00;;;;;;;12.77;9.40;;;14.40;99.90;;;;;;5031030;28;20061;-47
2021/07/24 05:06:26;;;;;;;13.15;9.32;;;14.50;99.90;;;;;;5028795;28;20475;-47
2021/07/24 05:08:52;;;;;;;13.93;9.35;;;14.50;99.90;;;;;;5027310;28;20116;-48
2021/07/24 05:11:17;;;;;;;13.60;9.20;;;14.60;99.90;;;;;;5027834;28;20033;-48
2021/07/24 05:13:44;;;;;;;16.77;9.45;;;14.70;99.90;;;;;;5031012;28;20542;-47
2021/07/24 05:16:10;;;;;;;15.27;9.05;;;14.70;99.90;;;;;;5043544;28;20466;-47
2021/07/24 05:18:35;;;;;;;12.93;9.45;;;14.80;99.90;;;;;;5045877;28;20064;-48
2021/07/24 05:21:01;;;;;;;12.60;9.10;;;14.90;99.90;;;;;;5045601;28;20034;-48
2021/07/24 05:23:26;;;;;;;11.88;9.68;;;14.90;99.90;;;;;;5035493;28;20036;-47
2021/07/24 05:25:52;;;;;;;16.38;9.95;;;15.00;99.90;;;;;;5038047;28;20108;-47
2021/07/24 05:28:17;;;;;;;13.43;9.50;;;15.00;99.90;;;;;;5042081;28;20419;-46
2021/07/24 05:30:43;;;;;;;16.55;10.00;;;15.10;99.90;;;;;;5045963;28;20029;-47
2021/07/24 05:33:08;;;;;;;14.93;9.82;;;15.10;99.90;;;;;;5044927;28;20043;-47
2021/07/24 05:35:34;;;;;;;15.07;9.77;;;15.20;99.90;;;;;;5044431;28;20013;-46
2021/07/24 05:37:59;;;;;;;12.38;9.80;;;15.30;99.90;;;;;;5046796;28;20059;-47
2021/07/24 05:40:25;;;;;;;14.07;9.82;;;15.30;99.90;;;;;;5045333;28;20091;-49
2021/07/24 05:42:50;;;;;;;15.52;10.45;;;15.40;99.90;;;;;;5043881;28;20083;-48
2021/07/24 05:45:16;;;;;;;15.30;10.32;;;15.40;99.90;;;;;;5046026;28;20037;-46
2021/07/24 05:47:41;;;;;;;19.50;11.63;;;15.50;99.90;;;;;;5051845;28;20029;-48
2021/07/24 05:50:07;;;;;;;14.77;10.70;;;15.50;99.90;;;;;;5048512;28;20036;-46
2021/07/24 05:52:32;;;;;;;19.50;11.18;;;15.60;99.90;;;;;;5048528;28;20050;-46
2021/07/24 05:55:02;;;;;;;20.83;10.77;;;15.70;99.90;;;;;;5051240;28;20021;-46
2021/07/24 05:57:27;;;;;;;15.10;9.93;;;15.70;99.90;;;;;;5047323;28;20536;-47
2021/07/24 05:59:53;;;;;;;18.85;11.50;;;15.70;99.90;;;;;;5031537;28;20049;-49
2021/07/24 06:02:18;;;;;;;23.05;12.52;;;15.80;99.90;;;;;;5045464;28;20327;-47
2021/07/24 06:04:44;;;;;;;15.57;10.25;;;15.90;99.90;;;;;;5052340;28;20111;-48
2021/07/24 06:07:10;;;;;;;24.00;11.65;;;15.90;99.90;;;;;;5031391;28;20025;-48
2021/07/24 06:09:36;;;;;;;13.98;10.63;;;16.00;99.90;;;;;;5049257;28;20024;-47
2021/07/24 06:12:02;;;;;;;19.55;10.55;;;16.10;99.90;;;;;;5038346;28;20068;-46
2021/07/24 06:14:27;;;;;;;19.60;10.65;;;16.10;99.90;;;;;;5034751;28;20030;-47
2021/07/24 06:16:53;;;;;;;15.43;10.10;;;16.30;99.90;;;;;;5032325;28;20326;-46
2021/07/24 06:19:19;;;;;;;12.93;10.23;;;16.30;99.90;;;;;;5037929;28;20452;-46
2021/07/24 06:21:45;;;;;;;17.40;10.10;;;16.40;99.90;;;;;;5036599;28;20052;-47
2021/07/24 06:24:11;;;;;;;12.77;9.05;;;16.50;99.90;;;;;;5040778;28;20087;-48
2021/07/24 06:26:37;;;;;;;17.17;9.90;;;16.60;99.90;;;;;;5032557;28;20475;-47
2021/07/24 06:29:04;;;;;;;16.23;10.27;;;16.60;99.90;;;;;;5030942;28;20104;-46
2021/07/24 06:31:30;;;;;;;17.65;10.52;;;16.80;99.90;;;;;;5030843;28;20296;-47
2021/07/24 06:33:55;;;;;;;16.30;10.80;;;16.90;99.90;;;;;;5036083;28;20018;-45
2021/07/24 06:36:21;;;;;;;14.80;10.23;;;17.00;99.90;;;;;;5047781;28;20360;-46
2021/07/24 06:38:46;;;;;;;12.48;9.50;;;17.10;99.90;;;;;;5038001;28;20030;-47
2021/07/24 06:41:12;;;;;;;15.25;10.43;;;17.20;99.90;;;;;;5044394;28;20028;-46
2021/07/24 06:43:37;;;;;;;15.43;11.07;;;17.30;99.90;;;;;;5040187;28;20475;-48
2021/07/24 06:46:10;;;;;;;15.85;9.45;;;17.40;99.90;;;;;;5043023;28;20021;-47
2021/07/24 06:48:35;;;;;;;16.55;10.32;;;17.50;99.90;;;;;;5050774;28;20467;-47
2021/07/24 06:51:01;;;;;;;14.18;9.85;;;17.60;99.90;;;;;;5042818;28;20091;-49
2021/07/24 06:53:27;;;;;;;14.02;9.95;;;17.60;99.90;;;;;;5058057;28;20029;-46
2021/07/24 06:55:56;;;;;;;12.02;8.75;;;17.80;99.90;;;;;;5048882;28;20411;-49
2021/07/24 06:58:22;;;;;;;14.80;8.77;;;17.90;99.90;;;;;;5063265;28;20029;-49
2021/07/24 07:00:48;;;;;;;14.10;9.43;;;18.00;99.90;;;;;;5049441;28;20037;-46
2021/07/24 07:03:14;;;;;;;13.40;8.27;;;18.10;99.90;;;;;;5065496;28;20029;-48
2021/07/24 07:05:39;;;;;;;12.85;8.68;;;18.10;99.90;;;;;;5051575;28;20026;-47
2021/07/24 07:08:05;;;;;;;13.68;8.88;;;18.20;99.90;;;;;;5043975;28;20514;-47
2021/07/24 07:10:30;;;;;;;11.00;8.32;;;18.30;99.90;;;;;;5061993;28;20039;-47
2021/07/24 07:12:56;;;;;;;10.38;8.32;;;18.40;99.90;;;;;;5049591;28;20045;-45
2021/07/24 07:15:24;;;;;;;14.85;9.00;;;18.50;99.90;;;;;;5054549;28;20044;-46
2021/07/24 07:17:51;;;;;;;10.40;8.32;;;18.60;99.90;;;;;;5044369;28;20023;-46
2021/07/24 07:20:17;;;;;;;11.73;7.72;;;18.70;99.90;;;;;;5049302;28;20521;-49
2021/07/24 07:22:42;;;;;;;13.63;7.88;;;18.90;99.90;;;;;;5061680;28;20078;-46
2021/07/24 07:25:08;;;;;;;10.43;7.97;;;19.00;99.90;;;;;;5060390;28;20552;-46
2021/07/24 07:27:34;;;;;;;10.90;8.27;;;19.10;99.90;;;;;;5062132;28;20115;-46
2021/07/24 07:29:59;;;;;;;9.95;7.97;;;19.30;99.90;;;;;;5061406;28;20071;-46
2021/07/24 07:32:25;;;;;;;8.63;7.15;;;19.40;99.90;;;;;;5061769;28;20035;-45
2021/07/24 07:34:52;;;;;;;13.35;8.38;;;19.50;99.90;;;;;;5059227;28;20383;-48
2021/07/24 07:37:17;;;;;;;8.90;7.53;;;19.70;99.90;;;;;;5049090;28;20122;-45
2021/07/24 07:39:43;;;;;;;12.20;7.72;;;19.90;99.90;;;;;;5062760;28;20648;-48
2021/07/24 07:42:08;;;;;;;7.85;7.05;;;20.00;99.90;;;;;;5057595;28;20044;-49
2021/07/24 07:44:34;;;;;;;10.75;7.75;;;20.10;99.90;;;;;;5047923;28;20082;-46
2021/07/24 07:46:59;;;;;;;14.48;7.50;;;20.30;99.90;;;;;;5062701;28;20601;-47
2021/07/24 07:49:24;;;;;;;8.50;7.15;;;20.40;99.90;;;;;;5047025;28;20028;-46
2021/07/24 07:51:50;;;;;;;11.90;6.80;;;20.60;99.90;;;;;;5033457;28;20033;-46
2021/07/24 07:54:15;;;;;;;9.02;6.47;;;20.80;99.90;;;;;;5039985;28;20043;-45
2021/07/24 07:56:41;;;;;;;10.52;6.43;;;21.00;99.90;;;;;;5033876;28;20022;-47
2021/07/24 07:59:06;;;;;;;8.25;6.20;;;21.20;99.90;;;;;;5045259;28;20018;-46
2021/07/24 08:01:32;;;;;;;7.55;6.03;;;21.40;99.90;;;;;;5043319;28;20029;-47
2021/07/24 08:03:57;;;;;;;8.80;6.45;;;21.50;99.90;;;;;;5047559;28;20728;-48
2021/07/24 08:06:23;;;;;;;9.13;6.15;;;21.60;99.90;;;;;;5051904;28;20388;-47
2021/07/24 08:08:50;;;;;;;7.53;5.82;;;21.80;99.90;;;;;;5031291;28;20434;-46
2021/07/24 08:11:16;;;;;;;6.55;5.82;;;22.00;99.90;;;;;;5050774;28;20032;-46
2021/07/24 08:13:41;;;;;;;10.38;6.18;;;22.40;99.90;;;;;;5051965;28;20043;-47
2021/07/24 08:16:14;;;;;;;7.65;5.88;;;22.50;99.90;;;;;;5051013;28;20049;-46
2021/07/24 08:18:40;;;;;;;6.32;5.72;;;22.70;99.90;;;;;;5057361;28;20389;-46
2021/07/24 08:21:05;;;;;;;8.50;5.97;;;23.00;99.90;;;;;;5052288;28;20026;-48
2021/07/24 08:23:31;;;;;;;15.65;6.78;;;23.40;99.90;;;;;;5044790;28;20470;-46
2021/07/24 08:25:56;;;;;;;8.70;6.50;;;23.40;98.80;;;;;;5042204;28;20037;-47
2021/07/24 08:28:26;;;;;;;7.53;5.35;;;23.70;99.90;;;;;;5041257;28;20036;-48
2021/07/24 08:30:52;;;;;;;8.83;6.20;;;24.00;98.50;;;;;;5028629;28;20022;-49
2021/07/24 08:33:17;;;;;;;10.25;5.57;;;24.70;98.10;;;;;;5027788;28;20071;-47
2021/07/24 08:35:43;;;;;;;13.40;6.25;;;26.40;95.10;;;;;;5028519;28;20041;-50
2021/07/24 08:38:08;;;;;;;5.88;5.20;;;27.80;91.50;;;;;;5028432;28;20097;-48
2021/07/24 08:40:34;;;;;;;7.18;5.15;;;28.60;86.80;;;;;;5029142;28;20021;-48
2021/07/24 08:43:04;;;;;;;6.03;4.80;;;30.00;80.60;;;;;;5037104;28;20594;-47
2021/07/24 08:45:29;;;;;;;5.72;4.50;;;30.70;76.30;;;;;;5031020;28;20037;-46
2021/07/24 08:47:55;;;;;;;6.15;4.55;;;31.50;72.70;;;;;;5032613;28;20408;-48
2021/07/24 08:50:20;;;;;;;7.30;4.80;;;32.30;68.30;;;;;;5030696;28;20025;-47
2021/07/24 08:52:55;;;;;;;7.53;4.93;;;32.70;65.80;;;;;;5030226;28;20105;-49
2021/07/24 08:55:22;;;;;;;5.40;4.82;;;33.60;62.00;;;;;;5031511;28;20036;-47
2021/07/24 08:57:50;;;;;;;7.00;5.03;;;33.90;58.90;;;;;;5044640;28;20016;-47
2021/07/24 09:00:16;;;;;;;6.13;5.53;;;34.10;58.70;;;;;;5029840;28;20087;-47
2021/07/24 09:02:43;;;;;;;5.88;5.15;;;34.10;59.40;;;;;;5029680;28;20475;-46
2021/07/24 09:05:11;;;;;;;5.72;5.22;;;34.60;55.40;;;;;;5030005;28;20014;-47
2021/07/24 09:07:40;;;;;;;6.38;5.78;;;35.20;56.40;;;;;;5028752;28;20056;-48
2021/07/24 09:10:07;;;;;;;6.43;5.75;;;36.60;51.80;;;;;;5041708;28;20017;-48
2021/07/24 09:12:36;;;;;;;7.22;6.00;;;37.00;49.50;;;;;;5034490;28;20029;-47
2021/07/24 09:15:03;;;;;;;6.45;5.20;;;37.30;51.00;;;;;;5037717;28;20037;-49
2021/07/24 09:17:29;;;;;;;7.40;6.18;;;37.40;50.00;;;;;;5033549;28;20026;-47
2021/07/24 09:19:56;;;;;;;6.45;5.85;;;37.50;47.70;;;;;;5037393;28;20029;-49
2021/07/24 09:22:33;;;;;;;6.20;5.63;;;37.50;46.40;;;;;;5053188;28;20048;-51
2021/07/24 09:25:08;;;;;;;8.50;6.07;;;38.40;47.10;;;;;;5049195;28;20033;-50
2021/07/24 09:27:39;;;;;;;13.02;8.05;;;38.90;45.30;;;;;;5051087;28;20540;-50
2021/07/24 09:30:06;;;;;;;6.65;6.03;;;39.10;46.50;;;;;;5049775;28;20479;-48
2021/07/24 09:32:32;;;;;;;11.27;6.50;;;39.30;44.80;;;;;;5054518;28;20474;-47
2021/07/24 09:34:57;;;;;;;9.40;6.55;;;39.70;42.80;;;;;;5040725;28;20030;-49
2021/07/24 09:37:25;;;;;;;7.68;6.78;;;39.60;43.50;;;;;;5052572;28;20070;-49
2021/07/24 09:39:51;;;;;;;8.32;7.10;;;40.00;41.80;;;;;;5048030;28;20100;-48
2021/07/24 09:42:18;;;;;;;8.50;6.95;;;40.10;41.00;;;;;;5035287;28;20020;-47
2021/07/24 09:44:43;;;;;;;7.93;7.13;;;40.80;40.30;;;;;;5050446;28;20028;-49
2021/07/24 09:47:09;;;;;;;11.43;7.30;;;40.90;41.00;;;;;;5051346;28;20356;-47
2021/07/24 09:49:36;;;;;;;7.70;6.90;;;41.90;39.20;;;;;;5053087;28;20032;-48
2021/07/24 09:52:12;;;;;;;7.97;7.18;;;40.20;40.60;;;;;;5042480;28;20063;-48
2021/07/24 09:54:38;;;;;;;7.90;7.07;;;40.20;39.70;;;;;;5048501;28;20021;-50
2021/07/24 09:57:04;;;;;;;8.30;7.30;;;40.10;41.00;;;;;;5047679;28;20263;-48
2021/07/24 09:59:30;;;;;;;8.95;8.05;;;40.80;40.10;;;;;;5054615;28;20028;-50
2021/07/24 10:01:59;;;;;;;8.27;6.85;;;40.20;40.20;;;;;;5036465;28;20029;-47
2021/07/24 10:04:27;;;;;;;;;;;40.00;40.60;;;;;;5058076;28;20055;-50
2021/07/24 10:06:59;;;;;;;9.70;7.85;;;40.80;39.50;;;;;;5051443;28;19926;-48
2021/07/24 10:09:29;;;;;;;9.20;8.18;;;41.30;40.00;;;;;;5048854;28;20477;-50
2021/07/24 10:11:56;;;;;;;14.52;8.88;;;41.70;39.20;;;;;;5057913;28;20039;-49
2021/07/24 10:14:22;;;;;;;9.63;8.40;;;41.80;39.90;;;;;;5048593;28;20078;-48
2021/07/24 10:16:52;;;;;;;9.90;8.90;;;41.60;38.80;;;;;;5045250;28;20060;-50
2021/07/24 10:19:19;;;;;;;10.50;8.77;;;41.60;38.50;;;;;;5046191;28;20033;-48
2021/07/24 10:21:45;;;;;;;11.43;8.85;;;41.20;39.00;;;;;;5035274;28;20076;-47
2021/07/24 10:24:11;;;;;;;9.55;8.65;;;41.50;38.60;;;;;;5044973;28;20033;-47
2021/07/24 10:26:39;;;;;;;10.57;9.00;;;41.80;38.90;;;;;;5038774;28;20044;-50
2021/07/24 10:29:10;;;;;;;14.60;9.73;;;41.60;38.10;;;;;;5049523;28;20435;-47
2021/07/24 10:32:00;;;;;;;10.30;8.88;;;41.70;38.70;;;;;;5051245;28;20053;-49
2021/07/24 10:34:29;;;;;;;10.13;9.10;;;42.30;37.30;;;;;;5035699;28;20428;-49
2021/07/24 10:36:55;;;;;;;11.10;9.75;;;41.10;37.30;;;;;;5030570;28;20076;-51
2021/07/24 10:39:22;;;;;;;13.35;9.98;;;41.40;38.70;;;;;;5034237;28;20032;-51
2021/07/24 10:41:49;;;;;;;14.73;10.88;;;41.70;38.70;;;;;;5036022;28;20391;-49
2021/07/24 10:44:23;;;;;;;10.25;8.90;;;41.70;37.10;;;;;;5036634;28;20032;-47
2021/07/24 10:46:49;;;;;;;10.98;9.40;;;42.00;37.20;;;;;;5031572;28;20041;-48
2021/07/24 10:49:33;;;;;;;11.13;9.55;;;42.50;36.90;;;;;;5038887;28;20032;-50
2021/07/24 10:52:00;;;;;;;11.18;9.13;;;42.70;36.60;;;;;;5029764;28;20029;-49
2021/07/24 10:54:27;;;;;;;11.10;9.88;;;43.00;36.70;;;;;;5050903;28;20271;-48
2021/07/24 10:56:53;;;;;;;10.25;9.20;;;42.40;36.30;;;;;;5031448;28;20113;-48
2021/07/24 10:59:25;;;;;;;14.23;8.98;;;42.90;36.20;;;;;;5033734;28;20649;-50
2021/07/24 11:01:51;;;;;;;12.13;9.45;;;43.30;35.10;;;;;;5032758;28;20071;-49
2021/07/24 11:04:35;;;;;;;13.75;9.38;;;42.90;36.70;;;;;;5032468;28;20033;-49
2021/07/24 11:07:16;;;;;;;10.25;9.18;;;42.30;37.40;;;;;;5038798;28;20075;-51
2021/07/24 11:09:43;;;;;;;11.20;9.50;;;42.60;36.10;;;;;;5037008;28;20083;-49
2021/07/24 11:12:13;;;;;;;14.35;10.48;;;42.50;36.30;;;;;;5039875;28;20391;-50
2021/07/24 11:14:42;;;;;;;10.68;9.60;;;42.00;36.40;;;;;;5030005;28;20017;-48
2021/07/24 11:17:16;;;;;;;11.45;9.10;;;41.80;37.10;;;;;;5030357;28;20096;-51
2021/07/24 11:19:53;;;;;;;11.55;9.13;;;40.90;37.40;;;;;;5042177;28;20051;-48
2021/07/24 11:22:24;;;;;;;11.77;9.43;;;40.40;37.40;;;;;;5043805;28;20028;-48
2021/07/24 11:24:49;;;;;;;11.73;9.68;;;40.20;37.90;;;;;;5050024;28;20105;-47
2021/07/24 11:27:15;;;;;;;17.05;10.05;;;38.90;40.10;;;;;;5055889;28;20112;-47
2021/07/24 11:29:40;;;;;;;12.23;10.07;;;38.40;38.90;;;;;;5041644;28;20517;-47
2021/07/24 11:32:07;;;;;;;11.00;9.52;;;38.10;40.40;;;;;;5041084;28;20061;-49
2021/07/24 11:34:34;;;;;;;12.07;10.45;;;38.60;40.30;;;;;;5029634;28;20025;-48
2021/07/24 11:37:00;;;;;;;13.88;10.13;;;39.10;39.10;;;;;;5031711;28;20452;-47
2021/07/24 11:39:26;;;;;;;11.32;9.95;;;39.00;39.60;;;;;;5032032;28;20064;-47
2021/07/24 11:41:53;;;;;;;11.73;10.60;;;39.60;38.60;;;;;;5033458;28;20546;-47
2021/07/24 11:44:29;;;;;;;11.98;10.05;;;40.10;38.70;;;;;;5032703;28;20017;-48
2021/07/24 11:47:02;;;;;;;10.35;9.15;;;40.60;37.80;;;;;;5031201;28;20120;-49
2021/07/24 11:49:31;;;;;;;17.80;10.18;;;40.70;38.20;;;;;;5032518;28;20026;-47
2021/07/24 11:51:58;;;;;;;11.82;10.15;;;40.20;37.60;;;;;;5030853;28;20124;-49
2021/07/24 11:54:31;;;;;;;10.57;9.25;;;40.00;38.40;;;;;;5031189;28;20391;-46
2021/07/24 11:56:57;;;;;;;14.30;10.43;;;40.10;37.30;;;;;;5033372;28;20031;-50
2021/07/24 11:59:25;;;;;;;10.95;9.18;;;40.10;37.80;;;;;;5038806;28;20021;-47
2021/07/24 12:01:50;;;;;;;15.25;10.40;;;40.00;38.00;;;;;;5032650;28;20100;-48
2021/07/24 12:04:17;;;;;;;15.82;10.45;;;39.70;40.30;;;;;;5035579;28;20064;-46
2021/07/24 12:07:08;;;;;;;12.73;9.50;;;39.70;39.20;;;;;;5030420;28;20502;-45
2021/07/24 12:09:36;;;;;;;10.60;8.98;;;39.60;38.60;;;;;;5034061;28;20077;-47
2021/07/24 12:12:02;;;;;;;14.05;9.50;;;39.40;39.40;;;;;;5034760;28;20107;-48
2021/07/24 12:14:29;;;;;;;11.98;10.20;;;38.80;39.60;;;;;;5037694;28;20048;-46
2021/07/24 12:17:07;;;;;;;12.25;10.27;;;38.10;39.80;;;;;;5033426;28;20025;-46
2021/07/24 12:19:44;;;;;;;12.70;10.55;;;37.30;41.20;;;;;;5034414;28;20442;-46
2021/07/24 12:22:15;;;;;;;12.63;10.20;;;36.80;41.70;;;;;;5035299;28;20025;-46
2021/07/24 12:24:41;;;;;;;16.65;11.40;;;36.10;42.20;;;;;;5034146;28;20508;-46
2021/07/24 12:27:11;;;;;;;14.13;10.65;;;36.10;42.40;;;;;;5039011;28;20036;-45
2021/07/24 12:29:53;;;;;;;12.57;10.65;;;36.00;42.00;;;;;;5051419;28;20018;-48
2021/07/24 12:32:21;;;;;;;12.15;10.85;;;35.70;44.20;;;;;;5042068;28;20029;-45
2021/07/24 12:34:47;;;;;;;13.20;10.95;;;35.40;42.50;;;;;;5037135;28;20025;-45
2021/07/24 12:37:27;;;;;;;15.63;11.27;;;34.80;43.90;;;;;;5046452;28;20025;-46
2021/07/24 12:39:53;;;;;;;;;;;34.70;44.50;;;;;;5030115;28;20502;-49